createdAt,value
2019-04-16T00:00:46.353Z,98251.84
2019-04-16T00:03:55.259Z,98256.62
2019-04-16T00:07:17.251Z,98257.05
2019-04-16T00:10:38.077Z,98259.20
2019-04-16T00:13:44.152Z,98257.83
2019-04-16T00:16:48.596Z,98256.53
2019-04-16T00:19:53.034Z,98255.13
2019-04-16T00:22:59.459Z,98251.59
2019-04-16T00:26:03.979Z,98243.34
2019-04-16T00:29:08.406Z,98246.87
2019-04-16T00:32:14.815Z,98247.86
2019-04-16T00:35:19.541Z,98252.28
2019-04-16T00:38:23.975Z,98250.00
2019-04-16T00:41:28.694Z,98250.55
2019-04-16T00:44:33.431Z,98252.09
2019-04-16T00:47:37.871Z,98243.28
2019-04-16T00:50:42.311Z,98246.91
2019-04-16T00:53:46.747Z,98240.97
2019-04-16T00:56:51.194Z,98248.89
2019-04-16T00:59:56.780Z,98243.39
2019-04-16T01:03:01.605Z,98240.44
2019-04-16T01:06:07.768Z,98236.12
2019-04-16T01:09:12.212Z,98235.52
2019-04-16T01:12:17.031Z,98223.42
2019-04-16T01:15:21.467Z,98225.02
2019-04-16T01:18:25.905Z,98219.78
2019-04-16T01:21:30.353Z,98221.41
2019-04-16T01:24:35.141Z,98220.23
2019-04-16T01:27:41.500Z,98219.78
2019-04-16T01:31:07.113Z,98218.00
2019-04-16T01:34:15.289Z,98226.38
2019-04-16T01:37:25.838Z,98228.16
2019-04-16T01:40:34.317Z,98222.53
2019-04-16T01:43:38.746Z,98221.97
2019-04-16T01:46:43.191Z,98214.38
2019-04-16T01:49:47.619Z,98222.05
2019-04-16T01:52:58.568Z,98220.48
2019-04-16T01:56:03.011Z,98218.23
2019-04-16T01:59:07.723Z,98221.64
2019-04-16T02:02:14.625Z,98224.52
2019-04-16T02:05:20.424Z,98222.40
2019-04-16T02:08:24.487Z,98224.50
2019-04-16T02:11:28.929Z,98219.88
2019-04-16T02:14:33.364Z,98220.97
2019-04-16T02:17:37.808Z,98216.73
2019-04-16T02:20:42.239Z,98214.88
2019-04-16T02:23:48.117Z,98210.08
2019-04-16T02:26:54.866Z,98208.19
2019-04-16T02:30:02.914Z,98203.80
2019-04-16T02:33:05.812Z,98198.80
2019-04-16T02:36:10.246Z,98202.48
2019-04-16T02:39:14.693Z,98204.84
2019-04-16T02:42:19.127Z,98200.66
2019-04-16T02:45:24.584Z,98206.48
2019-04-16T02:48:29.465Z,98205.14
2019-04-16T02:51:39.888Z,98203.75
2019-04-16T02:54:42.098Z,98207.93
2019-04-16T02:57:48.983Z,98205.62
2019-04-16T03:01:11.482Z,98202.85
2019-04-16T03:04:17.558Z,98207.03
2019-04-16T03:07:22.421Z,98203.05
2019-04-16T03:10:26.852Z,98195.39
2019-04-16T03:13:31.569Z,98198.55
2019-04-16T03:16:50.228Z,98204.70
2019-04-16T03:19:58.732Z,98199.19
2019-04-16T03:23:06.113Z,98196.34
2019-04-16T03:26:09.343Z,98199.44
2019-04-16T03:29:14.070Z,98206.19
2019-04-16T03:32:18.515Z,98203.66
2019-04-16T03:35:26.575Z,98201.43
2019-04-16T03:38:29.489Z,98202.66
2019-04-16T03:41:34.323Z,98197.02
2019-04-16T03:44:38.762Z,98200.36
2019-04-16T03:47:43.206Z,98191.06
2019-04-16T03:50:47.637Z,98193.66
2019-04-16T03:53:52.082Z,98194.17
2019-04-16T03:56:56.519Z,98195.69
2019-04-16T04:00:01.076Z,98188.72
2019-04-16T04:03:05.464Z,98191.43
2019-04-16T04:06:10.222Z,98200.20
2019-04-16T04:09:14.666Z,98201.53
2019-04-16T04:12:19.100Z,98204.67
2019-04-16T04:15:26.474Z,98206.30
2019-04-16T04:18:29.967Z,98208.08
2019-04-16T04:21:34.398Z,98207.92
2019-04-16T04:24:38.842Z,98207.75
2019-04-16T04:27:46.771Z,98212.59
2019-04-16T04:30:49.701Z,98209.27
2019-04-16T04:33:54.146Z,98214.59
2019-04-16T04:36:59.691Z,98217.67
2019-04-16T04:40:05.993Z,98218.61
2019-04-16T04:43:10.674Z,98219.06
2019-04-16T04:46:15.727Z,98219.72
2019-04-16T04:49:20.544Z,98220.25
2019-04-16T04:52:27.365Z,98217.23
2019-04-16T04:55:31.447Z,98224.05
2019-04-16T04:58:36.277Z,98226.95
2019-04-16T05:01:42.070Z,98225.19
2019-04-16T05:04:54.507Z,98234.94
2019-04-16T05:07:59.996Z,98232.70
2019-04-16T05:11:05.055Z,98233.85
2019-04-16T05:14:09.500Z,98236.62
2019-04-16T05:17:14.290Z,98241.16
2019-04-16T05:20:19.009Z,98245.48
2019-04-16T05:23:25.696Z,98249.02
2019-04-16T05:26:29.876Z,98242.97
2019-04-16T05:29:34.552Z,98248.22
2019-04-16T05:32:38.987Z,98252.80
2019-04-16T05:35:43.693Z,98257.92
2019-04-16T05:38:48.972Z,98262.30
2019-04-16T05:41:53.683Z,98261.67
2019-04-16T05:44:58.428Z,98265.92
2019-04-16T05:48:02.862Z,98272.09
2019-04-16T05:51:07.377Z,98270.05
2019-04-16T05:54:19.260Z,98269.20
2019-04-16T05:57:27.263Z,98269.42
2019-04-16T06:00:38.540Z,98272.70
2019-04-16T06:03:43.684Z,98264.09
2019-04-16T06:06:48.129Z,98267.33
2019-04-16T06:09:52.828Z,98267.85
2019-04-16T06:13:09.391Z,98274.28
2019-04-16T06:16:17.161Z,98278.34
2019-04-16T06:19:43.810Z,98284.27
2019-04-16T06:22:47.740Z,98284.96
2019-04-16T06:25:56.484Z,98289.71
2019-04-16T06:29:02.895Z,98291.04
2019-04-16T06:32:27.826Z,98293.09
2019-04-16T06:35:43.053Z,98292.30
2019-04-16T06:38:44.118Z,98291.59
2019-04-16T06:41:59.408Z,98293.94
2019-04-16T06:45:07.566Z,98287.88
2019-04-16T06:48:14.016Z,98281.37
2019-04-16T06:51:36.527Z,98278.95
2019-04-16T06:55:03.556Z,98275.87
2019-04-16T06:58:06.932Z,98276.87
2019-04-16T07:01:22.107Z,98269.97
2019-04-16T07:04:41.982Z,98263.20
2019-04-16T07:08:04.448Z,98264.09
2019-04-16T07:11:10.864Z,98260.56
2019-04-16T07:14:16.697Z,98257.08
2019-04-16T07:17:21.672Z,98255.26
2019-04-16T07:20:26.268Z,98253.75
2019-04-16T07:23:31.073Z,98243.54
2019-04-16T07:26:38.707Z,98250.91
2019-04-16T07:29:46.552Z,98248.81
2019-04-16T07:32:52.939Z,98247.98
2019-04-16T07:36:04.767Z,98248.49
2019-04-16T07:39:30.442Z,98247.76
2019-04-16T07:42:51.687Z,98246.19
2019-04-16T07:45:53.962Z,98246.74
2019-04-16T07:49:17.970Z,98261.94
2019-04-16T07:52:42.058Z,98266.57
2019-04-16T07:55:49.706Z,98269.04
2019-04-16T07:59:00.035Z,98271.45
2019-04-16T08:02:01.200Z,98271.09
2019-04-16T08:05:09.373Z,98260.37
2019-04-16T08:08:14.626Z,98257.73
2019-04-16T08:11:19.348Z,98259.14
2019-04-16T08:14:23.915Z,98254.54
2019-04-16T08:17:28.993Z,98247.05
2019-04-16T08:20:34.369Z,98245.95
2019-04-16T08:23:40.717Z,98247.89
2019-04-16T08:26:45.480Z,98245.02
2019-04-16T08:29:50.196Z,98255.20
2019-04-16T08:32:54.649Z,98253.96
2019-04-16T08:35:59.332Z,98256.98
2019-04-16T08:39:06.473Z,98261.19
2019-04-16T08:42:12.124Z,98257.04
2019-04-16T08:45:16.886Z,98259.01
2019-04-16T08:48:21.686Z,98256.80
2019-04-16T08:51:30.960Z,98256.55
2019-04-16T08:54:33.709Z,98261.97
2019-04-16T08:57:38.476Z,98257.92
2019-04-16T09:00:46.679Z,98260.00
2019-04-16T09:03:51.324Z,98258.65
2019-04-16T09:07:09.709Z,98252.38
2019-04-16T09:10:16.224Z,98246.27
2019-04-16T09:13:15.369Z,98247.41
2019-04-16T09:16:20.767Z,98248.45
2019-04-16T09:19:26.473Z,98250.27
2019-04-16T09:22:31.753Z,98242.27
2019-04-16T09:25:38.342Z,98234.20
2019-04-16T09:28:44.436Z,98229.03
2019-04-16T09:32:04.497Z,98233.52
2019-04-16T09:35:17.715Z,98240.52
2019-04-16T09:38:27.385Z,98241.63
2019-04-16T09:41:33.866Z,98243.50
2019-04-16T09:44:39.906Z,98230.71
2019-04-16T09:47:44.513Z,98243.00
2019-04-16T09:50:49.117Z,98245.52
2019-04-16T09:53:53.836Z,98239.56
2019-04-16T09:57:00.761Z,98236.92
2019-04-16T10:00:09.315Z,98245.82
2019-04-16T10:03:33.520Z,98237.12
2019-04-16T10:06:38.364Z,98240.78
2019-04-16T10:09:42.814Z,98236.96
2019-04-16T10:12:47.281Z,98239.02
2019-04-16T10:15:51.712Z,98238.28
2019-04-16T10:18:56.162Z,98230.42
2019-04-16T10:22:00.891Z,98228.73
2019-04-16T10:25:08.925Z,98231.20
2019-04-16T10:28:15.763Z,98234.81
2019-04-16T10:31:21.938Z,98234.81
2019-04-16T10:34:26.914Z,98227.48
2019-04-16T10:37:31.498Z,98230.80
2019-04-16T10:40:37.585Z,98215.63
2019-04-16T10:43:45.009Z,98219.89
2019-04-16T10:47:07.645Z,98222.99
2019-04-16T10:50:12.707Z,98217.20
2019-04-16T10:53:24.878Z,98221.73
2019-04-16T10:56:47.111Z,98221.05
2019-04-16T10:59:55.619Z,98221.02
2019-04-16T11:03:04.649Z,98222.44
2019-04-16T11:06:10.757Z,98215.41
2019-04-16T11:09:15.207Z,98215.30
2019-04-16T11:12:19.918Z,98204.83
2019-04-16T11:15:26.337Z,98204.63
2019-04-16T11:18:31.092Z,98204.91
2019-04-16T11:21:35.808Z,98203.46
2019-04-16T11:24:40.255Z,98214.41
2019-04-16T11:27:44.779Z,98199.84
2019-04-16T11:30:56.557Z,98199.47
2019-04-16T11:34:01.009Z,98195.88
2019-04-16T11:37:08.060Z,98198.13
2019-04-16T11:40:11.944Z,98205.70
2019-04-16T11:43:16.422Z,98199.44
2019-04-16T11:46:21.332Z,98205.14
2019-04-16T11:49:25.867Z,98199.77
2019-04-16T11:52:30.590Z,98192.84
2019-04-16T11:55:35.352Z,98198.17
2019-04-16T11:58:46.335Z,98188.02
2019-04-16T12:01:55.343Z,98193.59
2019-04-16T12:05:07.781Z,98189.54
2019-04-16T12:08:14.029Z,98196.70
2019-04-16T12:11:20.075Z,98193.19
2019-04-16T12:14:43.526Z,98193.50
2019-04-16T12:18:05.728Z,98190.29
2019-04-16T12:21:17.698Z,98201.47
2019-04-16T12:24:42.128Z,98202.58
2019-04-16T12:27:54.086Z,98199.64
2019-04-16T12:31:03.103Z,98205.78
2019-04-16T12:34:22.567Z,98214.23
2019-04-16T12:37:45.013Z,98220.27
2019-04-16T12:41:00.209Z,98221.37
2019-04-16T12:44:25.366Z,98229.45
2019-04-16T12:47:34.474Z,98228.84
2019-04-16T12:50:46.425Z,98230.53
2019-04-16T12:54:07.471Z,98234.76
2019-04-16T12:57:16.207Z,98224.41
2019-04-16T13:00:27.342Z,98226.59
2019-04-16T13:03:42.423Z,98231.83
2019-04-16T13:06:48.630Z,98231.67
2019-04-16T13:09:54.959Z,98221.38
2019-04-16T13:13:01.329Z,98227.21
2019-04-16T13:16:19.987Z,98230.09
2019-04-16T13:19:31.527Z,98233.05
2019-04-16T13:22:50.000Z,98233.36
2019-04-16T13:25:56.409Z,98238.21
2019-04-16T13:29:02.535Z,98237.80
2019-04-16T13:32:07.288Z,98238.77
2019-04-16T13:35:11.820Z,98235.36
2019-04-16T13:38:18.193Z,98234.13
2019-04-16T13:41:26.261Z,98233.98
2019-04-16T13:44:46.290Z,98236.59
2019-04-16T13:47:55.932Z,98229.23
2019-04-16T13:51:00.481Z,98235.09
2019-04-16T13:54:15.745Z,98237.06
2019-04-16T13:57:24.821Z,98227.55
2019-04-16T14:00:36.309Z,98228.61
2019-04-16T14:03:39.827Z,98224.91
2019-04-16T14:06:46.220Z,98224.98
2019-04-16T14:09:51.166Z,98216.02
2019-04-16T14:12:55.608Z,98229.06
2019-04-16T14:16:00.057Z,98229.52
2019-04-16T14:19:06.073Z,98227.81
2019-04-16T14:22:11.206Z,98221.02
2019-04-16T14:25:16.163Z,98218.80
2019-04-16T14:28:20.885Z,98221.64
2019-04-16T14:31:27.047Z,98227.42
2019-04-16T14:34:36.389Z,98227.97
2019-04-16T14:37:41.125Z,98233.81
2019-04-16T14:40:45.848Z,98229.19
2019-04-16T14:43:51.937Z,98219.42
2019-04-16T14:47:00.095Z,98222.72
2019-04-16T14:50:03.216Z,98220.95
2019-04-16T14:53:07.965Z,98216.83
2019-04-16T14:56:14.124Z,98219.03
2019-04-16T14:59:30.399Z,98224.63
2019-04-16T15:02:43.230Z,98223.82
2019-04-16T15:05:55.204Z,98222.33
2019-04-16T15:09:19.291Z,98218.26
2019-04-16T15:12:25.687Z,98222.00
2019-04-16T15:15:31.780Z,98221.62
2019-04-16T15:18:37.865Z,98222.73
2019-04-16T15:21:58.681Z,98222.66
2019-04-16T15:25:21.575Z,98217.94
2019-04-16T15:28:26.104Z,98222.69
2019-04-16T15:31:36.497Z,98219.75
2019-04-16T15:34:43.191Z,98224.81
2019-04-16T15:37:49.730Z,98223.14
2019-04-16T15:41:12.386Z,98227.94
2019-04-16T15:44:22.334Z,98226.45
2019-04-16T15:47:23.974Z,98231.34
2019-04-16T15:50:36.611Z,98237.32
2019-04-16T15:53:55.382Z,98238.31
2019-04-16T15:57:17.473Z,98235.91
2019-04-16T16:00:23.646Z,98241.48
2019-04-16T16:03:36.678Z,98248.73
2019-04-16T16:06:43.051Z,98255.42
2019-04-16T16:09:59.101Z,98256.52
2019-04-16T16:13:04.155Z,98269.56
2019-04-16T16:16:10.723Z,98270.17
2019-04-16T16:19:14.774Z,98271.63
2019-04-16T16:22:19.634Z,98279.60
2019-04-16T16:25:24.086Z,98282.80
2019-04-16T16:28:28.543Z,98289.44
2019-04-16T16:31:35.733Z,98288.23
2019-04-16T16:34:39.876Z,98299.77
2019-04-16T16:37:44.587Z,98296.31
2019-04-16T16:40:49.875Z,98290.24
2019-04-16T16:43:54.862Z,98295.55
2019-04-16T16:47:06.377Z,98303.71
2019-04-16T16:50:13.126Z,98297.41
2019-04-16T16:53:21.597Z,98297.98
2019-04-16T16:56:28.028Z,98298.70
2019-04-16T16:59:36.548Z,98300.77
2019-04-16T17:02:45.479Z,98303.94
2019-04-16T17:05:50.994Z,98310.96
2019-04-16T17:08:55.441Z,98308.94
2019-04-16T17:11:59.891Z,98303.72
2019-04-16T17:15:08.597Z,98302.70
2019-04-16T17:18:12.815Z,98308.71
2019-04-16T17:21:17.257Z,98304.61
2019-04-16T17:24:21.967Z,98308.89
2019-04-16T17:27:26.413Z,98309.75
2019-04-16T17:30:31.192Z,98312.78
2019-04-16T17:33:36.265Z,98317.80
2019-04-16T17:36:41.404Z,98323.28
2019-04-16T17:39:50.432Z,98323.20
2019-04-16T17:42:56.525Z,98320.35
2019-04-16T17:46:05.566Z,98326.37
2019-04-16T17:49:11.655Z,98331.67
2019-04-16T17:52:26.181Z,98330.84
2019-04-16T17:55:32.261Z,98334.74
2019-04-16T17:58:38.348Z,98336.56
2019-04-16T18:02:00.353Z,98338.77
2019-04-16T18:05:23.682Z,98344.22
2019-04-16T18:08:46.110Z,98351.55
2019-04-16T18:11:57.887Z,98356.72
2019-04-16T18:15:07.463Z,98364.56
2019-04-16T18:18:24.760Z,98366.29
2019-04-16T18:21:47.138Z,98372.74
2019-04-16T18:24:53.636Z,98368.54
2019-04-16T18:28:04.260Z,98382.31
2019-04-16T18:31:13.505Z,98385.72
2019-04-16T18:34:20.680Z,98394.06
2019-04-16T18:37:48.796Z,98402.13
2019-04-16T18:41:01.931Z,98409.39
2019-04-16T18:44:06.742Z,98423.41
2019-04-16T18:47:18.303Z,98433.53
2019-04-16T18:50:27.960Z,98429.13
2019-04-16T18:53:30.278Z,98433.41
2019-04-16T18:56:34.716Z,98441.33
2019-04-16T18:59:39.161Z,98447.30
2019-04-16T19:02:43.605Z,98453.69
2019-04-16T19:05:48.361Z,98446.13
2019-04-16T19:08:53.394Z,98458.44
2019-04-16T19:11:57.829Z,98462.01
2019-04-16T19:15:02.279Z,98460.15
2019-04-16T19:18:18.880Z,98457.98
2019-04-16T19:21:12.886Z,98470.57
2019-04-16T19:24:17.334Z,98473.45
2019-04-16T19:27:22.088Z,98478.08
2019-04-16T19:30:26.818Z,98477.09
2019-04-16T19:33:37.889Z,98475.61
2019-04-16T19:36:37.506Z,98475.31
2019-04-16T19:39:43.786Z,98475.70
2019-04-16T19:42:48.544Z,98486.73
2019-04-16T19:45:53.449Z,98492.41
2019-04-16T19:49:00.511Z,98496.02
2019-04-16T19:52:04.947Z,98495.55
2019-04-16T19:55:12.702Z,98488.05
2019-04-16T19:58:16.468Z,98494.28
2019-04-16T20:01:21.183Z,98489.47
2019-04-16T20:04:25.917Z,98489.77
2019-04-16T20:07:32.896Z,98497.56
2019-04-16T20:10:36.819Z,98499.66
2019-04-16T20:13:41.252Z,98497.66
2019-04-16T20:16:45.966Z,98500.86
2019-04-16T20:20:02.423Z,98501.69
2019-04-16T20:23:06.872Z,98502.54
2019-04-16T20:26:11.630Z,98503.59
2019-04-16T20:29:16.066Z,98509.73
2019-04-16T20:32:20.786Z,98499.93
2019-04-16T20:35:25.230Z,98504.23
2019-04-16T20:38:30.121Z,98501.86
2019-04-16T20:41:34.723Z,98498.05
2019-04-16T20:44:39.509Z,98503.70
2019-04-16T20:47:44.230Z,98501.09
2019-04-16T20:50:52.743Z,98502.83
2019-04-16T20:53:55.130Z,98501.13
2019-04-16T20:56:59.577Z,98512.63
2019-04-16T21:00:10.281Z,98505.30
2019-04-16T21:03:21.922Z,98513.62
2019-04-16T21:06:20.312Z,98523.56
2019-04-16T21:09:26.762Z,98514.41
2019-04-16T21:12:31.230Z,98515.39
2019-04-16T21:15:35.919Z,98514.21
2019-04-16T21:18:40.419Z,98516.14
2019-04-16T21:21:44.877Z,98516.13
2019-04-16T21:24:49.601Z,98517.55
2019-04-16T21:27:55.882Z,98525.95
2019-04-16T21:31:05.030Z,98529.53
2019-04-16T21:34:24.306Z,98525.59
2019-04-16T21:37:27.982Z,98527.81
2019-04-16T21:40:32.796Z,98530.27
2019-04-16T21:43:39.583Z,98534.62
2019-04-16T21:46:43.488Z,98546.77
2019-04-16T21:49:47.930Z,98548.96
2019-04-16T21:52:55.568Z,98556.25
2019-04-16T21:55:58.829Z,98555.44
2019-04-16T21:59:05.703Z,98562.41
2019-04-16T22:02:13.943Z,98559.22
2019-04-16T22:05:18.561Z,98561.94
2019-04-16T22:08:23.008Z,98559.75
2019-04-16T22:11:27.696Z,98560.03
2019-04-16T22:14:32.141Z,98559.75
2019-04-16T22:17:36.827Z,98564.31
2019-04-16T22:20:41.310Z,98561.69
2019-04-16T22:23:50.133Z,98557.65
2019-04-16T22:26:52.173Z,98553.33
2019-04-16T22:29:56.903Z,98564.09
2019-04-16T22:33:05.473Z,98571.90
2019-04-16T22:36:07.512Z,98571.37
2019-04-16T22:39:31.716Z,98573.52
2019-04-16T22:42:43.470Z,98568.42
2019-04-16T22:46:08.172Z,98573.02
2019-04-16T22:49:12.619Z,98570.58
2019-04-16T22:52:17.328Z,98574.58
2019-04-16T22:55:24.957Z,98570.57
2019-04-16T22:58:29.646Z,98577.58
2019-04-16T23:01:37.667Z,98577.58
2019-04-16T23:04:42.109Z,98580.30
2019-04-16T23:07:46.561Z,98582.17
2019-04-16T23:10:52.128Z,98584.02
2019-04-16T23:13:57.079Z,98587.53
2019-04-16T23:17:01.600Z,98584.28
2019-04-16T23:20:07.566Z,98585.33
2019-04-16T23:23:12.314Z,98592.05
2019-04-16T23:26:16.753Z,98586.67
2019-04-16T23:29:21.208Z,98589.66
2019-04-16T23:32:28.609Z,98581.59
2019-04-16T23:35:32.947Z,98586.19
2019-04-16T23:38:37.493Z,98592.34
2019-04-16T23:41:42.236Z,98595.56
2019-04-16T23:44:48.329Z,98594.50
2019-04-16T23:47:54.409Z,98592.91
2019-04-16T23:51:06.370Z,98602.56
2019-04-16T23:54:15.015Z,98597.20
2019-04-16T23:57:24.825Z,98597.96
